sensor_id;sensor_type;location;lat;lon;timestamp;temperature;humidity
63976;DHT22;50167;47.958;21.780;2023-07-28T00:01:52;18.19;64.45
63976;DHT22;50167;47.958;21.780;2023-07-28T00:04:18;19.42;62.16
63976;DHT22;50167;47.958;21.780;2023-07-28T00:06:44;20.15;59.50
63976;DHT22;50167;47.958;21.780;2023-07-28T00:09:10;20.04;57.36
63976;DHT22;50167;47.958;21.780;2023-07-28T00:11:37;19.22;58.31
63976;DHT22;50167;47.958;21.780;2023-07-28T00:14:03;18.62;59.59
63976;DHT22;50167;47.958;21.780;2023-07-28T00:16:29;18.12;60.71
63976;DHT22;50167;47.958;21.780;2023-07-28T00:18:56;17.76;62.08
63976;DHT22;50167;47.958;21.780;2023-07-28T00:21:22;17.42;63.17
63976;DHT22;50167;47.958;21.780;2023-07-28T00:23:49;18.11;64.92
63976;DHT22;50167;47.958;21.780;2023-07-28T00:26:15;19.42;62.74
63976;DHT22;50167;47.958;21.780;2023-07-28T00:28:41;20.14;59.97
63976;DHT22;50167;47.958;21.780;2023-07-28T00:31:07;20.05;57.56
63976;DHT22;50167;47.958;21.780;2023-07-28T00:33:33;19.22;58.24
63976;DHT22;50167;47.958;21.780;2023-07-28T00:36:00;18.59;59.65
63976;DHT22;50167;47.958;21.780;2023-07-28T00:38:26;18.09;61.15
63976;DHT22;50167;47.958;21.780;2023-07-28T00:40:52;17.72;62.13
63976;DHT22;50167;47.958;21.780;2023-07-28T00:43:18;18.23;63.92
63976;DHT22;50167;47.958;21.780;2023-07-28T00:45:45;19.32;61.65
63976;DHT22;50167;47.958;21.780;2023-07-28T00:48:13;20.08;59.94
63976;DHT22;50167;47.958;21.780;2023-07-28T00:50:48;19.96;57.49
63976;DHT22;50167;47.958;21.780;2023-07-28T00:53:15;19.07;58.67
63976;DHT22;50167;47.958;21.780;2023-07-28T00:55:42;18.42;60.06
63976;DHT22;50167;47.958;21.780;2023-07-28T00:58:10;17.93;61.74
63976;DHT22;50167;47.958;21.780;2023-07-28T01:00:36;17.56;62.73
63976;DHT22;50167;47.958;21.780;2023-07-28T01:03:03;18.12;64.31
63976;DHT22;50167;47.958;21.780;2023-07-28T01:05:44;19.24;62.97
63976;DHT22;50167;47.958;21.780;2023-07-28T01:08:34;19.94;60.90
63976;DHT22;50167;47.958;21.780;2023-07-28T01:10:58;20.34;58.65
63976;DHT22;50167;47.958;21.780;2023-07-28T01:13:24;19.99;57.41
63976;DHT22;50167;47.958;21.780;2023-07-28T01:15:50;19.08;58.49
63976;DHT22;50167;47.958;21.780;2023-07-28T01:18:20;18.37;60.15
63976;DHT22;50167;47.958;21.780;2023-07-28T01:20:47;17.88;61.36
63976;DHT22;50167;47.958;21.780;2023-07-28T01:28:30;19.29;62.55
63976;DHT22;50167;47.958;21.780;2023-07-28T01:30:57;19.96;60.47
63976;DHT22;50167;47.958;21.780;2023-07-28T01:33:23;20.23;58.67
63976;DHT22;50167;47.958;21.780;2023-07-28T01:35:49;19.74;57.73
63976;DHT22;50167;47.958;21.780;2023-07-28T01:38:15;18.79;59.39
63976;DHT22;50167;47.958;21.780;2023-07-28T01:40:42;18.07;61.05
63976;DHT22;50167;47.958;21.780;2023-07-28T01:43:08;17.52;62.54
63976;DHT22;50167;47.958;21.780;2023-07-28T01:45:34;18.00;64.37
63976;DHT22;50167;47.958;21.780;2023-07-28T01:48:01;19.05;62.64
63976;DHT22;50167;47.958;21.780;2023-07-28T01:50:27;19.70;60.63
63976;DHT22;50167;47.958;21.780;2023-07-28T01:52:53;20.05;59.62
63976;DHT22;50167;47.958;21.780;2023-07-28T01:55:19;19.77;57.93
63976;DHT22;50167;47.958;21.780;2023-07-28T01:58:00;18.86;58.96
63976;DHT22;50167;47.958;21.780;2023-07-28T02:00:27;18.01;60.74
63976;DHT22;50167;47.958;21.780;2023-07-28T02:02:54;17.45;62.26
63976;DHT22;50167;47.958;21.780;2023-07-28T02:05:21;17.85;64.34
63976;DHT22;50167;47.958;21.780;2023-07-28T02:07:47;19.09;62.82
63976;DHT22;50167;47.958;21.780;2023-07-28T02:10:14;19.80;60.22
63976;DHT22;50167;47.958;21.780;2023-07-28T02:12:40;20.10;58.83
63976;DHT22;50167;47.958;21.780;2023-07-28T02:15:07;19.74;57.34
63976;DHT22;50167;47.958;21.780;2023-07-28T02:17:34;18.76;58.79
63976;DHT22;50167;47.958;21.780;2023-07-28T02:20:01;17.97;60.63
63976;DHT22;50167;47.958;21.780;2023-07-28T02:22:29;17.37;62.33
63976;DHT22;50167;47.958;21.780;2023-07-28T02:24:55;17.80;64.62
63976;DHT22;50167;47.958;21.780;2023-07-28T02:27:22;18.93;63.26
63976;DHT22;50167;47.958;21.780;2023-07-28T02:29:48;19.55;60.87
63976;DHT22;50167;47.958;21.780;2023-07-28T02:32:14;19.84;58.87
63976;DHT22;50167;47.958;21.780;2023-07-28T02:34:40;19.39;57.63
63976;DHT22;50167;47.958;21.780;2023-07-28T02:37:06;18.50;59.00
63976;DHT22;50167;47.958;21.780;2023-07-28T02:39:33;17.80;60.58
63976;DHT22;50167;47.958;21.780;2023-07-28T02:41:59;17.26;61.97
63976;DHT22;50167;47.958;21.780;2023-07-28T02:44:25;17.69;64.09
63976;DHT22;50167;47.958;21.780;2023-07-28T02:46:51;18.73;62.50
63976;DHT22;50167;47.958;21.780;2023-07-28T02:49:18;19.27;60.51
63976;DHT22;50167;47.958;21.780;2023-07-28T02:51:45;19.59;59.08
63976;DHT22;50167;47.958;21.780;2023-07-28T02:54:11;19.25;57.85
63976;DHT22;50167;47.958;21.780;2023-07-28T02:56:37;18.42;59.15
63976;DHT22;50167;47.958;21.780;2023-07-28T02:59:04;17.76;60.45
63976;DHT22;50167;47.958;21.780;2023-07-28T03:01:31;17.27;62.10
63976;DHT22;50167;47.958;21.780;2023-07-28T03:04:01;16.88;62.78
63976;DHT22;50167;47.958;21.780;2023-07-28T03:06:28;17.45;64.91
63976;DHT22;50167;47.958;21.780;2023-07-28T03:08:54;18.67;63.33
63976;DHT22;50167;47.958;21.780;2023-07-28T03:11:21;19.52;60.63
63976;DHT22;50167;47.958;21.780;2023-07-28T03:13:47;20.01;58.60
63976;DHT22;50167;47.958;21.780;2023-07-28T03:16:13;19.56;56.97
63976;DHT22;50167;47.958;21.780;2023-07-28T03:18:39;18.63;58.65
63976;DHT22;50167;47.958;21.780;2023-07-28T03:21:05;17.97;60.58
63976;DHT22;50167;47.958;21.780;2023-07-28T03:23:32;17.45;61.83
63976;DHT22;50167;47.958;21.780;2023-07-28T03:25:58;17.09;63.36
63976;DHT22;50167;47.958;21.780;2023-07-28T03:28:24;17.73;64.73
63976;DHT22;50167;47.958;21.780;2023-07-28T03:30:50;18.76;63.07
63976;DHT22;50167;47.958;21.780;2023-07-28T03:33:16;19.56;61.15
63976;DHT22;50167;47.958;21.780;2023-07-28T03:35:43;20.13;59.18
63976;DHT22;50167;47.958;21.780;2023-07-28T03:38:09;19.83;57.36
63976;DHT22;50167;47.958;21.780;2023-07-28T03:40:35;19.02;58.69
63976;DHT22;50167;47.958;21.780;2023-07-28T03:43:02;18.39;60.68
63976;DHT22;50167;47.958;21.780;2023-07-28T03:45:28;17.91;61.78
63976;DHT22;50167;47.958;21.780;2023-07-28T03:47:55;17.52;62.73
63976;DHT22;50167;47.958;21.780;2023-07-28T03:50:21;18.01;64.55
63976;DHT22;50167;47.958;21.780;2023-07-28T03:52:49;19.15;62.79
63976;DHT22;50167;47.958;21.780;2023-07-28T03:55:16;19.66;60.50
63976;DHT22;50167;47.958;21.780;2023-07-28T03:57:42;19.99;59.98
63976;DHT22;50167;47.958;21.780;2023-07-28T04:00:09;20.48;59.01
63976;DHT22;50167;47.958;21.780;2023-07-28T04:02:36;20.34;57.06
63976;DHT22;50167;47.958;21.780;2023-07-28T04:05:02;19.52;58.18
63976;DHT22;50167;47.958;21.780;2023-07-28T04:07:28;18.88;60.20
63976;DHT22;50167;47.958;21.780;2023-07-28T04:09:55;18.43;61.98
63976;DHT22;50167;47.958;21.780;2023-07-28T04:12:21;18.07;62.70
63976;DHT22;50167;47.958;21.780;2023-07-28T04:14:47;18.63;64.60
63976;DHT22;50167;47.958;21.780;2023-07-28T04:17:13;19.77;63.12
63976;DHT22;50167;47.958;21.780;2023-07-28T04:19:40;20.55;60.79
63976;DHT22;50167;47.958;21.780;2023-07-28T04:22:06;21.01;59.21
63976;DHT22;50167;47.958;21.780;2023-07-28T04:24:32;20.76;57.38
63976;DHT22;50167;47.958;21.780;2023-07-28T04:26:58;19.90;58.35
63976;DHT22;50167;47.958;21.780;2023-07-28T04:29:24;19.19;60.13
63976;DHT22;50167;47.958;21.780;2023-07-28T04:31:53;18.70;61.66
63976;DHT22;50167;47.958;21.780;2023-07-28T04:34:20;18.28;63.22
63976;DHT22;50167;47.958;21.780;2023-07-28T04:36:46;18.86;64.78
63976;DHT22;50167;47.958;21.780;2023-07-28T04:39:12;20.07;62.43
63976;DHT22;50167;47.958;21.780;2023-07-28T04:41:38;20.83;60.12
63976;DHT22;50167;47.958;21.780;2023-07-28T04:44:04;21.42;58.41
63976;DHT22;50167;47.958;21.780;2023-07-28T04:46:31;21.25;56.76
63976;DHT22;50167;47.958;21.780;2023-07-28T04:48:57;20.43;57.90
63976;DHT22;50167;47.958;21.780;2023-07-28T04:51:23;19.81;59.45
63976;DHT22;50167;47.958;21.780;2023-07-28T04:53:50;19.28;61.56
63976;DHT22;50167;47.958;21.780;2023-07-28T04:56:16;18.86;62.19
63976;DHT22;50167;47.958;21.780;2023-07-28T04:58:42;18.59;63.72
63976;DHT22;50167;47.958;21.780;2023-07-28T05:01:08;19.34;64.49
63976;DHT22;50167;47.958;21.780;2023-07-28T05:03:35;20.64;61.47
63976;DHT22;50167;47.958;21.780;2023-07-28T05:06:03;21.47;58.61
63976;DHT22;50167;47.958;21.780;2023-07-28T05:08:31;21.37;57.51
63976;DHT22;50167;47.958;21.780;2023-07-28T05:10:57;20.66;58.37
63976;DHT22;50167;47.958;21.780;2023-07-28T05:13:24;20.15;59.74
63976;DHT22;50167;47.958;21.780;2023-07-28T05:15:50;19.81;60.52
63976;DHT22;50167;47.958;21.780;2023-07-28T05:18:17;19.50;61.69
63976;DHT22;50167;47.958;21.780;2023-07-28T05:20:43;19.24;62.47
63976;DHT22;50167;47.958;21.780;2023-07-28T05:23:09;19.81;62.88
63976;DHT22;50167;47.958;21.780;2023-07-28T05:25:35;21.06;59.92
63976;DHT22;50167;47.958;21.780;2023-07-28T05:28:01;21.31;57.77
63976;DHT22;50167;47.958;21.780;2023-07-28T05:33:02;20.08;59.46
63976;DHT22;50167;47.958;21.780;2023-07-28T05:35:28;19.72;60.93
63976;DHT22;50167;47.958;21.780;2023-07-28T05:37:54;19.35;62.43
63976;DHT22;50167;47.958;21.780;2023-07-28T05:40:21;20.04;63.06
63976;DHT22;50167;47.958;21.780;2023-07-28T05:42:47;21.38;59.09
63976;DHT22;50167;47.958;21.780;2023-07-28T05:45:13;21.55;57.34
63976;DHT22;50167;47.958;21.780;2023-07-28T05:47:41;21.01;57.81
63976;DHT22;50167;47.958;21.780;2023-07-28T05:50:08;20.48;59.69
63976;DHT22;50167;47.958;21.780;2023-07-28T05:52:34;20.17;60.57
63976;DHT22;50167;47.958;21.780;2023-07-28T05:55:00;20.03;61.45
63976;DHT22;50167;47.958;21.780;2023-07-28T05:57:26;20.08;61.78
63976;DHT22;50167;47.958;21.780;2023-07-28T05:59:53;20.18;61.23
63976;DHT22;50167;47.958;21.780;2023-07-28T06:02:19;20.27;60.96
63976;DHT22;50167;47.958;21.780;2023-07-28T06:04:46;20.18;61.56
63976;DHT22;50167;47.958;21.780;2023-07-28T06:07:30;20.15;61.81
63976;DHT22;50167;47.958;21.780;2023-07-28T06:09:59;20.11;62.02
63976;DHT22;50167;47.958;21.780;2023-07-28T06:12:25;20.10;62.21
63976;DHT22;50167;47.958;21.780;2023-07-28T06:14:52;20.13;62.10
63976;DHT22;50167;47.958;21.780;2023-07-28T06:17:18;20.11;62.18
63976;DHT22;50167;47.958;21.780;2023-07-28T06:19:44;20.13;62.19
63976;DHT22;50167;47.958;21.780;2023-07-28T06:22:10;20.15;62.24
63976;DHT22;50167;47.958;21.780;2023-07-28T06:24:36;20.15;62.10
63976;DHT22;50167;47.958;21.780;2023-07-28T06:27:03;20.17;62.32
63976;DHT22;50167;47.958;21.780;2023-07-28T06:29:31;20.82;61.55
63976;DHT22;50167;47.958;21.780;2023-07-28T06:31:57;22.19;59.41
63976;DHT22;50167;47.958;21.780;2023-07-28T06:34:23;22.57;55.87
63976;DHT22;50167;47.958;21.780;2023-07-28T06:36:49;22.13;56.12
63976;DHT22;50167;47.958;21.780;2023-07-28T06:39:19;21.73;57.14
63976;DHT22;50167;47.958;21.780;2023-07-28T06:41:45;21.40;58.09
63976;DHT22;50167;47.958;21.780;2023-07-28T06:44:11;21.20;58.17
63976;DHT22;50167;47.958;21.780;2023-07-28T06:46:37;20.97;58.83
63976;DHT22;50167;47.958;21.780;2023-07-28T06:49:03;20.83;59.35
63976;DHT22;50167;47.958;21.780;2023-07-28T06:51:29;20.69;59.32
63976;DHT22;50167;47.958;21.780;2023-07-28T06:53:56;20.51;60.10
63976;DHT22;50167;47.958;21.780;2023-07-28T06:56:22;20.34;60.56
63976;DHT22;50167;47.958;21.780;2023-07-28T06:58:48;20.20;61.10
63976;DHT22;50167;47.958;21.780;2023-07-28T07:01:14;20.07;61.75
63976;DHT22;50167;47.958;21.780;2023-07-28T07:03:41;20.00;62.42
63976;DHT22;50167;47.958;21.780;2023-07-28T07:06:07;20.71;62.62
63976;DHT22;50167;47.958;21.780;2023-07-28T07:08:33;21.95;59.29
63976;DHT22;50167;47.958;21.780;2023-07-28T07:11:00;22.27;57.12
63976;DHT22;50167;47.958;21.780;2023-07-28T07:13:26;21.79;57.81
63976;DHT22;50167;47.958;21.780;2023-07-28T07:15:52;21.51;58.62
63976;DHT22;50167;47.958;21.780;2023-07-28T07:18:18;21.28;59.42
63976;DHT22;50167;47.958;21.780;2023-07-28T07:20:48;21.11;60.17
63976;DHT22;50167;47.958;21.780;2023-07-28T07:23:14;21.13;60.63
63976;DHT22;50167;47.958;21.780;2023-07-28T07:25:40;21.04;61.19
63976;DHT22;50167;47.958;21.780;2023-07-28T07:28:06;21.06;60.64
63976;DHT22;50167;47.958;21.780;2023-07-28T07:30:33;20.99;60.47
63976;DHT22;50167;47.958;21.780;2023-07-28T07:32:59;20.99;60.28
63976;DHT22;50167;47.958;21.780;2023-07-28T07:35:26;20.94;60.71
63976;DHT22;50167;47.958;21.780;2023-07-28T07:37:52;20.99;60.49
63976;DHT22;50167;47.958;21.780;2023-07-28T07:40:20;21.03;60.18
63976;DHT22;50167;47.958;21.780;2023-07-28T07:42:47;21.13;60.27
63976;DHT22;50167;47.958;21.780;2023-07-28T07:45:15;21.27;59.92
63976;DHT22;50167;47.958;21.780;2023-07-28T07:47:42;21.42;59.69
63976;DHT22;50167;47.958;21.780;2023-07-28T07:50:10;21.57;59.00
63976;DHT22;50167;47.958;21.780;2023-07-28T07:52:37;21.70;58.75
63976;DHT22;50167;47.958;21.780;2023-07-28T07:55:06;21.83;59.04
63976;DHT22;50167;47.958;21.780;2023-07-28T07:57:32;22.05;57.66
63976;DHT22;50167;47.958;21.780;2023-07-28T07:59:59;22.28;56.80
63976;DHT22;50167;47.958;21.780;2023-07-28T08:02:25;22.52;56.55
63976;DHT22;50167;47.958;21.780;2023-07-28T08:04:54;22.75;54.60
63976;DHT22;50167;47.958;21.780;2023-07-28T08:07:21;23.00;54.76
63976;DHT22;50167;47.958;21.780;2023-07-28T08:09:48;23.15;54.45
63976;DHT22;50167;47.958;21.780;2023-07-28T08:12:15;23.30;53.68
63976;DHT22;50167;47.958;21.780;2023-07-28T08:14:42;23.41;52.71
63976;DHT22;50167;47.958;21.780;2023-07-28T08:17:12;23.51;52.72
63976;DHT22;50167;47.958;21.780;2023-07-28T08:19:38;23.57;51.56
63976;DHT22;50167;47.958;21.780;2023-07-28T08:22:04;23.57;51.49
63976;DHT22;50167;47.958;21.780;2023-07-28T08:24:31;23.64;52.28
63976;DHT22;50167;47.958;21.780;2023-07-28T08:26:58;23.67;52.16
63976;DHT22;50167;47.958;21.780;2023-07-28T08:29:24;23.71;51.35
63976;DHT22;50167;47.958;21.780;2023-07-28T08:31:51;23.74;51.03
63976;DHT22;50167;47.958;21.780;2023-07-28T08:34:17;23.73;51.62
63976;DHT22;50167;47.958;21.780;2023-07-28T08:36:44;23.75;51.36
63976;DHT22;50167;47.958;21.780;2023-07-28T08:39:10;23.80;50.39
63976;DHT22;50167;47.958;21.780;2023-07-28T08:41:36;23.80;50.75
63976;DHT22;50167;47.958;21.780;2023-07-28T08:44:03;23.85;51.08
63976;DHT22;50167;47.958;21.780;2023-07-28T08:46:29;23.85;51.39
63976;DHT22;50167;47.958;21.780;2023-07-28T08:48:56;23.81;51.38
63976;DHT22;50167;47.958;21.780;2023-07-28T08:51:32;23.89;51.62
63976;DHT22;50167;47.958;21.780;2023-07-28T08:54:04;24.01;50.98
63976;DHT22;50167;47.958;21.780;2023-07-28T08:56:30;24.04;50.70
63976;DHT22;50167;47.958;21.780;2023-07-28T08:58:59;24.01;51.11
63976;DHT22;50167;47.958;21.780;2023-07-28T09:01:28;23.96;51.19
63976;DHT22;50167;47.958;21.780;2023-07-28T09:03:56;23.91;52.05
63976;DHT22;50167;47.958;21.780;2023-07-28T09:06:29;23.91;51.83
63976;DHT22;50167;47.958;21.780;2023-07-28T09:08:57;23.95;50.70
63976;DHT22;50167;47.958;21.780;2023-07-28T09:11:24;23.94;50.75
63976;DHT22;50167;47.958;21.780;2023-07-28T09:13:54;23.95;50.06
63976;DHT22;50167;47.958;21.780;2023-07-28T09:16:21;23.98;50.09
63976;DHT22;50167;47.958;21.780;2023-07-28T09:18:49;24.05;49.66
63976;DHT22;50167;47.958;21.780;2023-07-28T09:21:20;24.13;49.78
63976;DHT22;50167;47.958;21.780;2023-07-28T09:23:48;24.27;49.80
63976;DHT22;50167;47.958;21.780;2023-07-28T09:26:16;24.39;49.57
63976;DHT22;50167;47.958;21.780;2023-07-28T09:28:43;24.49;48.26
63976;DHT22;50167;47.958;21.780;2023-07-28T09:31:09;24.57;48.40
63976;DHT22;50167;47.958;21.780;2023-07-28T09:33:37;24.68;47.56
63976;DHT22;50167;47.958;21.780;2023-07-28T09:36:14;24.78;47.57
63976;DHT22;50167;47.958;21.780;2023-07-28T09:38:43;24.94;47.25
63976;DHT22;50167;47.958;21.780;2023-07-28T09:41:10;25.11;47.26
63976;DHT22;50167;47.958;21.780;2023-07-28T09:43:38;25.23;47.25
63976;DHT22;50167;47.958;21.780;2023-07-28T09:46:08;25.40;47.77
63976;DHT22;50167;47.958;21.780;2023-07-28T09:48:39;25.62;46.73
63976;DHT22;50167;47.958;21.780;2023-07-28T09:51:18;25.79;45.42
63976;DHT22;50167;47.958;21.780;2023-07-28T09:53:58;25.84;44.49
63976;DHT22;50167;47.958;21.780;2023-07-28T09:56:27;25.83;43.88
63976;DHT22;50167;47.958;21.780;2023-07-28T09:58:57;25.80;44.78
63976;DHT22;50167;47.958;21.780;2023-07-28T10:01:24;25.80;43.85
63976;DHT22;50167;47.958;21.780;2023-07-28T10:03:51;25.77;44.35
63976;DHT22;50167;47.958;21.780;2023-07-28T10:06:19;25.73;44.51
63976;DHT22;50167;47.958;21.780;2023-07-28T10:08:45;25.67;45.65
63976;DHT22;50167;47.958;21.780;2023-07-28T10:11:12;25.62;44.83
63976;DHT22;50167;47.958;21.780;2023-07-28T10:13:41;25.53;45.48
63976;DHT22;50167;47.958;21.780;2023-07-28T10:16:13;25.46;45.28
63976;DHT22;50167;47.958;21.780;2023-07-28T10:18:54;25.43;45.47
63976;DHT22;50167;47.958;21.780;2023-07-28T10:21:20;25.40;44.92
63976;DHT22;50167;47.958;21.780;2023-07-28T10:23:53;25.33;44.78
63976;DHT22;50167;47.958;21.780;2023-07-28T10:26:30;25.25;45.25
63976;DHT22;50167;47.958;21.780;2023-07-28T10:31:53;25.19;45.61
63976;DHT22;50167;47.958;21.780;2023-07-28T10:34:22;25.23;45.49
63976;DHT22;50167;47.958;21.780;2023-07-28T10:37:00;25.26;45.63
63976;DHT22;50167;47.958;21.780;2023-07-28T10:39:26;25.30;45.38
63976;DHT22;50167;47.958;21.780;2023-07-28T10:42:08;25.30;46.03
63976;DHT22;50167;47.958;21.780;2023-07-28T10:44:37;25.39;45.46
63976;DHT22;50167;47.958;21.780;2023-07-28T10:47:08;25.52;45.91
63976;DHT22;50167;47.958;21.780;2023-07-28T10:49:35;25.75;44.97
63976;DHT22;50167;47.958;21.780;2023-07-28T10:52:01;26.00;45.04
63976;DHT22;50167;47.958;21.780;2023-07-28T10:54:27;26.25;44.10
63976;DHT22;50167;47.958;21.780;2023-07-28T10:56:54;26.30;43.45
63976;DHT22;50167;47.958;21.780;2023-07-28T10:59:20;26.27;41.83
63976;DHT22;50167;47.958;21.780;2023-07-28T11:01:47;26.35;41.96
63976;DHT22;50167;47.958;21.780;2023-07-28T11:04:17;26.51;41.86
63976;DHT22;50167;47.958;21.780;2023-07-28T11:06:46;26.64;40.96
63976;DHT22;50167;47.958;21.780;2023-07-28T11:09:16;26.67;41.32
63976;DHT22;50167;47.958;21.780;2023-07-28T11:11:43;26.69;41.22
63976;DHT22;50167;47.958;21.780;2023-07-28T11:14:09;26.66;41.92
63976;DHT22;50167;47.958;21.780;2023-07-28T11:16:38;26.60;40.76
63976;DHT22;50167;47.958;21.780;2023-07-28T11:19:11;26.56;40.89
63976;DHT22;50167;47.958;21.780;2023-07-28T11:21:38;26.56;41.58
63976;DHT22;50167;47.958;21.780;2023-07-28T11:24:06;26.72;42.38
63976;DHT22;50167;47.958;21.780;2023-07-28T11:26:38;27.04;41.85
63976;DHT22;50167;47.958;21.780;2023-07-28T11:29:05;27.49;42.53
63976;DHT22;50167;47.958;21.780;2023-07-28T11:31:31;27.86;40.52
63976;DHT22;50167;47.958;21.780;2023-07-28T11:33:59;27.96;40.50
63976;DHT22;50167;47.958;21.780;2023-07-28T11:36:32;27.99;40.83
63976;DHT22;50167;47.958;21.780;2023-07-28T11:38:58;28.07;40.02
63976;DHT22;50167;47.958;21.780;2023-07-28T11:41:26;28.04;40.58
63976;DHT22;50167;47.958;21.780;2023-07-28T11:43:54;28.03;40.90
63976;DHT22;50167;47.958;21.780;2023-07-28T11:46:36;28.04;40.65
63976;DHT22;50167;47.958;21.780;2023-07-28T11:51:45;28.35;40.86
63976;DHT22;50167;47.958;21.780;2023-07-28T11:54:15;28.56;40.32
63976;DHT22;50167;47.958;21.780;2023-07-28T11:56:44;28.79;40.63
63976;DHT22;50167;47.958;21.780;2023-07-28T11:59:11;29.13;38.73
63976;DHT22;50167;47.958;21.780;2023-07-28T12:02:04;29.33;37.68
63976;DHT22;50167;47.958;21.780;2023-07-28T12:04:37;29.47;37.24
63976;DHT22;50167;47.958;21.780;2023-07-28T12:07:08;29.40;37.31
63976;DHT22;50167;47.958;21.780;2023-07-28T12:09:50;29.16;37.51
63976;DHT22;50167;47.958;21.780;2023-07-28T12:12:19;29.00;38.29
63976;DHT22;50167;47.958;21.780;2023-07-28T12:14:46;28.91;37.91
63976;DHT22;50167;47.958;21.780;2023-07-28T12:17:16;28.81;37.80
63976;DHT22;50167;47.958;21.780;2023-07-28T12:20:06;28.78;38.14
63976;DHT22;50167;47.958;21.780;2023-07-28T12:22:34;28.82;37.54
63976;DHT22;50167;47.958;21.780;2023-07-28T12:25:00;28.82;37.85
63976;DHT22;50167;47.958;21.780;2023-07-28T12:27:26;28.79;37.66
63976;DHT22;50167;47.958;21.780;2023-07-28T12:29:53;28.68;37.34
63976;DHT22;50167;47.958;21.780;2023-07-28T12:32:19;28.40;37.53
63976;DHT22;50167;47.958;21.780;2023-07-28T12:34:45;28.12;37.27
63976;DHT22;50167;47.958;21.780;2023-07-28T12:37:11;27.87;38.57
63976;DHT22;50167;47.958;21.780;2023-07-28T12:39:39;27.83;38.86
63976;DHT22;50167;47.958;21.780;2023-07-28T12:42:09;27.92;39.04
63976;DHT22;50167;47.958;21.780;2023-07-28T12:48:36;28.27;37.52
63976;DHT22;50167;47.958;21.780;2023-07-28T12:51:02;28.20;38.27
63976;DHT22;50167;47.958;21.780;2023-07-28T12:53:28;28.17;38.75
63976;DHT22;50167;47.958;21.780;2023-07-28T12:55:54;28.09;38.23
63976;DHT22;50167;47.958;21.780;2023-07-28T12:58:21;27.92;38.61
63976;DHT22;50167;47.958;21.780;2023-07-28T13:00:47;27.79;38.64
63976;DHT22;50167;47.958;21.780;2023-07-28T13:03:13;27.69;38.78
63976;DHT22;50167;47.958;21.780;2023-07-28T13:05:39;27.64;39.15
63976;DHT22;50167;47.958;21.780;2023-07-28T13:08:08;27.62;38.85
63976;DHT22;50167;47.958;21.780;2023-07-28T13:10:34;27.58;39.48
63976;DHT22;50167;47.958;21.780;2023-07-28T13:13:00;27.51;39.93
63976;DHT22;50167;47.958;21.780;2023-07-28T13:15:27;27.48;40.64
63976;DHT22;50167;47.958;21.780;2023-07-28T13:17:54;27.45;40.31
63976;DHT22;50167;47.958;21.780;2023-07-28T13:20:20;27.41;40.12
63976;DHT22;50167;47.958;21.780;2023-07-28T13:22:46;27.35;39.72
63976;DHT22;50167;47.958;21.780;2023-07-28T13:25:12;27.25;40.35
63976;DHT22;50167;47.958;21.780;2023-07-28T13:27:38;27.22;40.66
63976;DHT22;50167;47.958;21.780;2023-07-28T13:30:06;27.22;40.68
63976;DHT22;50167;47.958;21.780;2023-07-28T13:32:32;27.30;40.78
63976;DHT22;50167;47.958;21.780;2023-07-28T13:34:58;27.37;40.80
63976;DHT22;50167;47.958;21.780;2023-07-28T13:37:25;27.61;40.83
63976;DHT22;50167;47.958;21.780;2023-07-28T13:39:51;28.02;40.29
63976;DHT22;50167;47.958;21.780;2023-07-28T13:42:18;28.30;39.81
63976;DHT22;50167;47.958;21.780;2023-07-28T13:44:44;28.48;40.00
63976;DHT22;50167;47.958;21.780;2023-07-28T13:47:10;28.81;39.52
63976;DHT22;50167;47.958;21.780;2023-07-28T13:49:36;29.19;38.71
63976;DHT22;50167;47.958;21.780;2023-07-28T13:52:04;29.64;37.80
63976;DHT22;50167;47.958;21.780;2023-07-28T13:54:30;30.16;37.28
63976;DHT22;50167;47.958;21.780;2023-07-28T13:56:57;30.73;36.50
63976;DHT22;50167;47.958;21.780;2023-07-28T13:59:23;31.46;35.45
63976;DHT22;50167;47.958;21.780;2023-07-28T14:01:49;32.27;32.79
63976;DHT22;50167;47.958;21.780;2023-07-28T14:04:16;32.86;32.49
63976;DHT22;50167;47.958;21.780;2023-07-28T14:06:42;33.47;32.56
63976;DHT22;50167;47.958;21.780;2023-07-28T14:09:08;34.15;30.43
63976;DHT22;50167;47.958;21.780;2023-07-28T14:11:35;34.78;29.94
63976;DHT22;50167;47.958;21.780;2023-07-28T14:14:01;35.31;29.81
63976;DHT22;50167;47.958;21.780;2023-07-28T14:16:28;35.89;28.37
63976;DHT22;50167;47.958;21.780;2023-07-28T14:18:55;36.34;27.75
63976;DHT22;50167;47.958;21.780;2023-07-28T14:21:21;36.85;26.98
63976;DHT22;50167;47.958;21.780;2023-07-28T14:23:47;37.26;26.15
63976;DHT22;50167;47.958;21.780;2023-07-28T14:26:14;37.40;26.97
63976;DHT22;50167;47.958;21.780;2023-07-28T14:28:42;37.69;24.97
63976;DHT22;50167;47.958;21.780;2023-07-28T14:31:08;37.88;25.13
63976;DHT22;50167;47.958;21.780;2023-07-28T14:33:34;37.63;25.08
63976;DHT22;50167;47.958;21.780;2023-07-28T14:36:01;36.99;25.87
63976;DHT22;50167;47.958;21.780;2023-07-28T14:38:27;36.08;26.69
63976;DHT22;50167;47.958;21.780;2023-07-28T14:44:54;35.83;27.02
63976;DHT22;50167;47.958;21.780;2023-07-28T14:47:20;36.12;27.40
63976;DHT22;50167;47.958;21.780;2023-07-28T14:49:46;36.12;25.93
63976;DHT22;50167;47.958;21.780;2023-07-28T14:52:14;36.20;26.79
63976;DHT22;50167;47.958;21.780;2023-07-28T14:54:40;36.52;26.55
63976;DHT22;50167;47.958;21.780;2023-07-28T14:57:06;37.03;26.88
63976;DHT22;50167;47.958;21.780;2023-07-28T14:59:34;37.31;25.89
63976;DHT22;50167;47.958;21.780;2023-07-28T15:02:00;36.87;26.02
63976;DHT22;50167;47.958;21.780;2023-07-28T15:04:26;36.20;26.82
63976;DHT22;50167;47.958;21.780;2023-07-28T15:06:52;35.22;27.43
63976;DHT22;50167;47.958;21.780;2023-07-28T15:09:19;34.80;28.49
63976;DHT22;50167;47.958;21.780;2023-07-28T15:11:47;34.73;28.10
63976;DHT22;50167;47.958;21.780;2023-07-28T15:14:13;34.58;28.57
63976;DHT22;50167;47.958;21.780;2023-07-28T15:16:39;34.39;29.14
63976;DHT22;50167;47.958;21.780;2023-07-28T15:19:07;34.02;29.49
63976;DHT22;50167;47.958;21.780;2023-07-28T15:21:33;33.67;30.08
63976;DHT22;50167;47.958;21.780;2023-07-28T15:23:59;33.57;29.80
63976;DHT22;50167;47.958;21.780;2023-07-28T15:26:26;33.79;30.68
63976;DHT22;50167;47.958;21.780;2023-07-28T15:28:52;34.24;29.37
63976;DHT22;50167;47.958;21.780;2023-07-28T15:31:20;34.54;28.77
63976;DHT22;50167;47.958;21.780;2023-07-28T15:33:46;34.74;28.99
63976;DHT22;50167;47.958;21.780;2023-07-28T15:36:12;35.08;29.02
63976;DHT22;50167;47.958;21.780;2023-07-28T15:38:38;35.46;28.20